• Join FlightAware (Why Join?)
  • Login
  • US Flag 
03:04PM EDT


 

Airport Tracker/Info


-or-


 

Live Flight TrackerFlight Track Log ✈ AAL2345 ✈ 16-Jul-2013 ✈ KORD - KDFW

Flight Track Log - Related Links

Times and Time Zones

All times are in EDT time to prevent confusion due to time zone crossing. See the AAL2345 flight status page for this flight to view local times or setup timezone preferences in your user account.

Time Position Orientation Groundspeed Altitude Reporting Facility
EDT Latitude Longitude Course Direction KTS MPH feet Rate Location/Type
06:44PM 41.9000 -87.9000 189° South 205 236 3,100  Level Chicago TRACON
06:45PM 41.7538 -87.9523 188° South  Level FlightAware Approximate
06:45PM 41.8006 -87.9106 185° South 241 277 5,900  Level Chicago Center
06:46PM 41.6431 -87.9725 188° South  Level FlightAware Approximate
06:46PM 41.7253 -87.9369 195° South 275 316 8,700  Level Chicago Center
06:47PM 41.5325 -87.9935 189° South  Level FlightAware Approximate
06:47PM 41.6456 -87.9581 191° South 289 333 11,400  Level Chicago Center
06:48PM 41.4220 -88.0156 189° South  Level FlightAware Approximate
06:48PM 41.5600 -87.9842 193° South 310 357 12,300  Level Chicago Center
06:49PM 41.3156 -88.0536 189° South  Level FlightAware Approximate
06:50PM 41.4594 -88.0142 193° South 361 415 14,500  Level Chicago Center
06:51PM 41.3494 -88.0514 194° South 378 435 16,800 1,920 Climbing Chicago Center
06:52PM 41.2661 -88.1478 221° Southwest 396 456 18,500 1,860 Climbing Chicago Center
06:53PM 41.1697 -88.2744 225° Southwest 404 465 20,700 1,800 Climbing Chicago Center
06:54PM 41.0753 -88.3586 214° Southwest 418 481 22,300 1,500 Climbing Chicago Center
06:55PM 40.9703 -88.4300 207° Southwest 428 493 23,900 1,500 Climbing Chicago Center
06:56PM 40.8636 -88.4989 206° Southwest 427 491 25,400 1,260 Climbing Chicago Center
06:57PM 40.7556 -88.5703 207° Southwest 434 499 26,600 1,200 Climbing Chicago Center
06:58PM 40.6228 -88.6569 206° Southwest 443 510 27,900 1,320 Climbing Chicago Center
06:59PM 40.5100 -88.7292 206° Southwest 451 519 29,400 1,320 Climbing Chicago Center
07:00PM 40.3967 -88.8025 206° Southwest 446 513 30,700 1,200 Climbing Chicago Center
07:01PM 40.2858 -88.8733 206° Southwest 441 507 31,900 780 Climbing Chicago Center
07:02PM 40.1744 -88.9456 206° Southwest 443 510 32,400 660 Climbing Chicago Center
07:03PM 40.0633 -89.0147 205° Southwest 440 506 33,300 720 Climbing Chicago Center
07:04PM 39.9542 -89.0844 206° Southwest 435 501 34,000 360 Climbing Chicago Center
07:05PM 39.8656 -89.1400 206° Southwest 435 501 34,000  Level Kansas City Center
07:06PM 39.7572 -89.2089 206° Southwest 433 498 34,000  Level Kansas City Center
07:07PM 39.6464 -89.2783 206° Southwest 435 501 34,000  Level Kansas City Center
07:08PM 39.5392 -89.3472 206° Southwest 433 498 34,000  Level Kansas City Center
07:09PM 39.4308 -89.4147 206° Southwest 432 497 34,000  Level Kansas City Center
07:10PM 39.3203 -89.4836 206° Southwest 435 501 34,000  Level Kansas City Center
07:11PM 39.1872 -89.5667 206° Southwest 440 506 34,000  Level Kansas City Center
07:12PM 39.0794 -89.6339 206° Southwest 438 504 34,000  Level Kansas City Center
07:13PM 38.9614 -89.7061 205° Southwest 437 503 34,000  Level Kansas City Center
07:14PM 38.8567 -89.7692 205° Southwest 440 506 34,000  Level Kansas City Center
07:15PM 38.7467 -89.8364 205° Southwest 438 504 34,000  Level Kansas City Center
07:16PM 38.6353 -89.9028 205° Southwest 437 503 34,000  Level Kansas City Center
07:17PM 38.5264 -89.9697 206° Southwest 433 498 34,000  Level Kansas City Center
07:18PM 38.4175 -90.0353 205° Southwest 430 495 34,000  Level Kansas City Center
07:19PM 38.3081 -90.1014 205° Southwest 432 497 34,000  Level Kansas City Center
07:20PM 38.1769 -90.1817 206° Southwest 433 498 34,000  Level Kansas City Center
07:21PM 38.0681 -90.2469 205° Southwest 432 497 34,000  Level Kansas City Center
07:22PM 37.9586 -90.3119 205° Southwest 433 498 34,000  Level Kansas City Center
07:23PM 37.8489 -90.3797 206° Southwest 437 503 34,000  Level Kansas City Center
07:24PM 37.7375 -90.4442 205° Southwest 439 505 34,000  Level Kansas City Center
07:25PM 37.6275 -90.5100 205° Southwest 438 504 34,000  Level Kansas City Center
07:26PM 37.5175 -90.5769 206° Southwest 439 505 34,000  Level Kansas City Center
07:27PM 37.4072 -90.6400 204° Southwest 437 503 34,000  Level Kansas City Center
07:28PM 37.2856 -90.7114 205° Southwest 435 501 34,000  Level Kansas City Center
07:29PM 37.1700 -90.7797 205° Southwest 433 498 34,000  Level Kansas City Center
07:30PM 37.0478 -90.8503 205° Southwest 427 491 34,000  Level Kansas City Center
07:31PM 36.9469 -90.9317 213° Southwest 436 502 34,000  Level Kansas City Center
07:32PM 36.8903 -91.0642 242° Southwest 438 504 34,000  Level Kansas City Center
07:34PM 36.8258 -91.2072 241° Southwest 436 502 34,000  Level Kansas City Center
07:35PM 36.7664 -91.3389 241° Southwest 435 501 34,000  Level Kansas City Center
07:36PM 36.7031 -91.4717 239° Southwest 439 505 34,000  Level Kansas City Center
07:37PM 36.6450 -91.6067 242° Southwest 441 507 34,000  Level Kansas City Center
07:37PM 36.6061 -91.6881 239° Southwest 441 507 34,000  Level Memphis Center
07:38PM 36.5461 -91.8214 241° Southwest 441 507 34,000  Level Memphis Center
07:39PM 36.4861 -91.9519 240° Southwest 441 507 34,000  Level Memphis Center
07:40PM 36.4347 -92.0669 241° Southwest 436 502 34,000  Level Memphis Center
07:41PM 36.3767 -92.1947 241° Southwest 436 502 34,000  Level Memphis Center
07:42PM 36.3183 -92.3247 241° Southwest 436 502 34,000  Level Memphis Center
07:43PM 36.2578 -92.4494 239° Southwest 436 502 34,000  Level Memphis Center
07:44PM 36.1994 -92.5792 241° Southwest 436 502 34,000  Level Memphis Center
07:45PM 36.1386 -92.7061 239° Southwest 436 502 34,000  Level Memphis Center
07:46PM 36.0614 -92.8219 231° Southwest 436 502 34,000  Level Memphis Center
07:47PM 35.9778 -92.9322 227° Southwest 441 507 34,000  Level Memphis Center
07:48PM 35.8942 -93.0397 226° Southwest 441 507 34,000  Level Memphis Center
07:49PM 35.8106 -93.1497 227° Southwest 441 507 34,000  Level Memphis Center
07:50PM 35.7247 -93.2569 225° Southwest 441 507 34,000  Level Memphis Center
07:51PM 35.6406 -93.3739 228° Southwest 446 513 34,000  Level Memphis Center
07:52PM 35.5506 -93.4753 223° Southwest 446 513 34,000  Level Memphis Center
07:53PM 35.4664 -93.5842 227° Southwest 446 513 34,000  Level Memphis Center
07:54PM 35.3842 -93.6958 228° Southwest 451 519 34,000  Level Memphis Center
07:55PM 35.2950 -93.8244 230° Southwest 456 525 34,000  Level Memphis Center
07:56PM 35.2147 -93.9381 229° Southwest 451 519 34,000  Level Memphis Center
07:57PM 35.1342 -94.0514 229° Southwest 451 519 34,000  Level Memphis Center
07:59PM 34.9931 -94.2531 230° Southwest 446 513 34,000  Level Fort Worth Center
08:00PM 34.9244 -94.3469 228° Southwest 433 498 34,000  Level Fort Worth Center
08:01PM 34.8481 -94.4583 230° Southwest 433 498 34,000  Level Fort Worth Center
08:02PM 34.7692 -94.5672 229° Southwest 433 498 34,000  Level Fort Worth Center
08:03PM 34.6922 -94.6758 229° Southwest 428 493 34,000  Level Fort Worth Center
08:04PM 34.6133 -94.7844 229° Southwest 428 493 34,000  Level Fort Worth Center
08:05PM 34.5361 -94.8875 228° Southwest 421 484 34,000  Level Fort Worth Center
08:06PM 34.4589 -94.9931 228° Southwest 421 484 34,000  Level Fort Worth Center
08:07PM 34.3533 -95.0364 199° South 407 468 34,000  Level Fort Worth Center
08:08PM 34.2367 -95.0547 187° South 397 457 34,000  Level Fort Worth Center
08:09PM 34.1222 -95.0703 186° South 410 472 34,000  Level Fort Worth Center
08:10PM 34.0036 -95.0858 186° South 427 491 34,000  Level Fort Worth Center
08:11PM 33.8850 -95.1067 188° South 427 491 34,000  Level Fort Worth Center
08:12PM 33.7817 -95.1619 204° Southwest 432 497 34,000  Level Fort Worth Center
08:13PM 33.7861 -95.2967 272° West 332 382 34,000  Level Fort Worth Center
08:14PM 33.8875 -95.3692 329° Northwest 296 341 34,000  Level Fort Worth Center
08:15PM 34.0081 -95.3289 15° North 304 350 34,000  Level Fort Worth Center
08:16PM 34.0706 -95.2069 58° Northeast 326 375 34,000  Level Fort Worth Center
08:17PM 34.1158 -95.0656 69° East 376 433 34,000  Level Fort Worth Center
08:18PM 34.1614 -94.9261 68° East 403 464 34,000 -1,020 Level Fort Worth Center
08:19PM 34.1458 -94.7861 98° East 417 480 32,000 -2,100 Descending Fort Worth Center
08:20PM 34.0244 -94.7597 170° South 331 381 29,900 -2,040 Descending Fort Worth Center
08:21PM 33.9456 -94.8897 234° Southwest 298 343 28,000 -1,560 Descending Fort Worth Center
08:22PM 33.8942 -95.0389 247° West 365 420 26,800 -1,440 Descending Fort Worth Center
08:23PM 33.8428 -95.1828 247° West 428 493 25,200 -1,440 Descending Fort Worth Center
08:24PM 33.7950 -95.3214 248° West 450 518 24,000 -1,320 Descending Fort Worth Center
08:25PM 33.7431 -95.4625 246° West 461 531 22,600 -1,320 Descending Fort Worth Center
08:26PM 33.6967 -95.5858 246° West 445 512 21,400 -1,620 Descending Fort Worth Center
08:27PM 33.6528 -95.7117 247° West 424 488 19,400 -1,860 Descending Fort Worth Center
08:28PM 33.6103 -95.8297 247° West 405 466 17,700 -1,800 Descending Fort Worth Center
08:29PM 33.5619 -95.9603 246° West 392 451 15,800 -1,800 Descending Fort Worth Center
08:30PM 33.5233 -96.0631 246° West 380 437 14,200 -1,620 Descending Fort Worth Center
08:31PM 33.4786 -96.1831 246° West 380 437 12,700 -1,200 Descending Fort Worth Center
08:32PM 33.4481 -96.2733 248° West 353 406 11,900 -900 Descending Fort Worth Center
08:33PM 33.4094 -96.3758 246° West 322 371 11,000 -840 Descending Fort Worth Center
08:34PM 33.3536 -96.4536 229° Southwest 317 365 10,300 -1,020 Descending Fort Worth Center
08:35PM 33.3000 -96.5261 229° Southwest 304 350 9,000 -1,440 Descending Fort Worth Center
08:36PM 33.2567 -96.6111 239° Southwest 304 350 7,500 -1,560 Descending Fort Worth Center
08:37PM 33.2153 -96.6883 237° Southwest 293 337 5,900 -1,320 Descending Fort Worth Center
08:38PM 33.1719 -96.7681 237° Southwest 288 331 5,000 -840 Descending Fort Worth Center
08:39PM 33.1306 -96.8453 237° Southwest 288 331 4,300 -1,020 Descending Fort Worth Center
08:40PM 33.0872 -96.9275 238° Southwest 283 326 3,000 -1,320 Descending Fort Worth Center